createdAt,value
2023-05-07T00:00:54.078Z,4.40
2023-05-07T00:03:27.447Z,4.63
2023-05-07T00:05:59.887Z,5.07
2023-05-07T00:08:31.892Z,4.90
2023-05-07T00:11:04.179Z,5.10
2023-05-07T00:13:36.698Z,4.87
2023-05-07T00:16:08.706Z,5.00
2023-05-07T00:18:40.799Z,4.93
2023-05-07T00:21:13.171Z,5.10
2023-05-07T00:23:45.430Z,5.27
2023-05-07T00:26:17.634Z,5.47
2023-05-07T00:28:49.583Z,5.97
2023-05-07T00:31:21.836Z,5.30
2023-05-07T00:33:53.873Z,5.20
2023-05-07T00:36:27.344Z,5.57
2023-05-07T00:39:03.120Z,5.27
2023-05-07T00:41:35.131Z,5.43
2023-05-07T00:44:07.866Z,5.73
2023-05-07T00:46:39.993Z,5.83
2023-05-07T00:49:12.778Z,5.57
2023-05-07T00:51:46.314Z,5.00
2023-05-07T00:54:18.582Z,6.73
2023-05-07T00:56:50.559Z,5.67
2023-05-07T00:59:22.772Z,5.83
2023-05-07T01:01:55.152Z,5.97
2023-05-07T01:04:28.043Z,6.20
2023-05-07T01:07:02.632Z,5.80
2023-05-07T01:09:37.121Z,6.10
2023-05-07T01:12:10.320Z,6.40
2023-05-07T01:14:42.866Z,6.27
2023-05-07T01:17:14.939Z,6.47
2023-05-07T01:19:48.684Z,6.47
2023-05-07T01:22:37.896Z,7.03
2023-05-07T01:25:10.133Z,7.07
2023-05-07T01:27:42.161Z,7.20
2023-05-07T01:30:14.461Z,7.23
2023-05-07T01:33:07.606Z,7.13
2023-05-07T01:35:46.462Z,7.07
2023-05-07T01:38:19.905Z,7.60
2023-05-07T01:40:52.290Z,7.97
2023-05-07T01:43:24.632Z,8.70
2023-05-07T01:45:58.273Z,9.87
2023-05-07T01:48:30.934Z,8.13
2023-05-07T01:51:04.087Z,8.47
2023-05-07T01:53:40.389Z,8.37
2023-05-07T01:56:12.353Z,9.47
2023-05-07T01:58:45.882Z,9.13
2023-05-07T02:01:17.931Z,9.27
2023-05-07T02:03:50.735Z,9.47
2023-05-07T02:06:22.880Z,9.87
2023-05-07T02:08:54.882Z,9.43
2023-05-07T02:11:26.880Z,9.87
2023-05-07T02:13:58.798Z,10.37
2023-05-07T02:16:30.833Z,10.93
2023-05-07T02:19:03.235Z,10.30
2023-05-07T02:21:35.231Z,10.47
2023-05-07T02:24:07.418Z,10.97
2023-05-07T02:26:39.358Z,11.43
2023-05-07T02:29:11.307Z,11.20
2023-05-07T02:31:43.316Z,11.43
2023-05-07T02:34:15.312Z,12.03
2023-05-07T02:36:47.235Z,12.00
2023-05-07T02:39:19.151Z,12.50
2023-05-07T02:41:51.036Z,13.17
2023-05-07T02:44:23.053Z,13.30
2023-05-07T02:46:54.948Z,12.93
2023-05-07T02:49:26.921Z,13.03
2023-05-07T02:51:58.875Z,13.30
2023-05-07T02:54:30.874Z,13.63
2023-05-07T02:57:03.187Z,14.10
2023-05-07T02:59:35.172Z,14.73
2023-05-07T03:02:07.094Z,14.03
2023-05-07T03:04:42.190Z,14.77
2023-05-07T03:07:14.134Z,15.10
2023-05-07T03:09:46.385Z,15.10
2023-05-07T03:12:18.377Z,15.30
2023-05-07T03:14:50.285Z,15.63
2023-05-07T03:17:22.809Z,15.87
2023-05-07T03:19:54.845Z,16.00
2023-05-07T03:22:26.914Z,16.63
2023-05-07T03:24:58.897Z,17.03
2023-05-07T03:27:31.048Z,17.73
2023-05-07T03:30:03.139Z,17.60
2023-05-07T03:32:36.379Z,17.37
2023-05-07T03:35:08.703Z,18.40
2023-05-07T03:37:41.297Z,17.83
2023-05-07T03:40:13.869Z,18.43
2023-05-07T03:42:46.109Z,18.30
2023-05-07T03:45:18.366Z,18.27
2023-05-07T03:47:50.344Z,19.30
2023-05-07T03:50:22.450Z,18.80
2023-05-07T03:52:54.449Z,19.10
2023-05-07T03:55:26.465Z,19.40
2023-05-07T03:57:58.360Z,19.77
2023-05-07T04:00:34.530Z,19.17
2023-05-07T04:03:06.845Z,20.35
2023-05-07T04:05:38.854Z,20.23
2023-05-07T04:08:10.901Z,20.50
2023-05-07T04:10:42.882Z,20.37
2023-05-07T04:13:14.963Z,21.87
2023-05-07T04:15:47.469Z,19.60
2023-05-07T04:18:19.531Z,20.77
2023-05-07T04:20:51.555Z,20.80
2023-05-07T04:23:23.617Z,20.57
2023-05-07T04:25:56.232Z,19.67
2023-05-07T04:28:28.263Z,20.03
2023-05-07T04:31:00.163Z,20.10
2023-05-07T04:33:32.420Z,19.50
2023-05-07T04:36:05.538Z,19.90
2023-05-07T04:38:37.560Z,20.57
2023-05-07T04:41:10.713Z,20.20
2023-05-07T04:43:42.776Z,20.00
2023-05-07T04:46:15.058Z,19.40
2023-05-07T04:48:47.058Z,19.73
2023-05-07T04:51:18.993Z,20.10
2023-05-07T04:53:51.564Z,18.87
2023-05-07T04:56:23.525Z,19.60
2023-05-07T04:58:55.594Z,19.87
2023-05-07T05:01:27.595Z,20.20
2023-05-07T05:04:01.249Z,19.30
2023-05-07T05:06:33.591Z,20.07
2023-05-07T05:09:06.042Z,20.33
2023-05-07T05:11:38.094Z,19.63
2023-05-07T05:14:10.307Z,19.70
2023-05-07T05:16:42.266Z,19.83
2023-05-07T05:19:14.444Z,19.37
2023-05-07T05:21:46.419Z,19.97
2023-05-07T05:24:18.902Z,18.60
2023-05-07T05:26:50.991Z,18.97
2023-05-07T05:29:22.974Z,19.17
2023-05-07T05:31:54.981Z,20.03
2023-05-07T05:34:26.995Z,19.33
2023-05-07T05:37:00.837Z,18.33
2023-05-07T05:39:32.764Z,18.77
2023-05-07T05:42:04.876Z,18.63
2023-05-07T05:44:36.900Z,19.23
2023-05-07T05:47:08.887Z,19.17
2023-05-07T05:49:40.845Z,18.17
2023-05-07T05:52:15.176Z,19.13
2023-05-07T05:54:47.157Z,18.03
2023-05-07T05:57:19.677Z,19.03
2023-05-07T05:59:51.664Z,18.80
2023-05-07T06:02:23.752Z,17.83
2023-05-07T06:04:55.949Z,18.27
2023-05-07T06:07:27.921Z,18.23
2023-05-07T06:09:59.862Z,17.70
2023-05-07T06:12:31.913Z,18.23
2023-05-07T06:15:04.957Z,18.20
2023-05-07T06:17:36.965Z,17.60
2023-05-07T06:20:09.918Z,18.00
2023-05-07T06:22:42.061Z,17.33
2023-05-07T06:25:14.028Z,16.90
2023-05-07T06:27:46.016Z,17.23
2023-05-07T06:30:18.227Z,18.20
2023-05-07T06:32:50.310Z,17.10
2023-05-07T06:35:22.334Z,17.20
2023-05-07T06:37:54.334Z,17.43
2023-05-07T06:40:26.365Z,15.70
2023-05-07T06:42:58.261Z,16.33
2023-05-07T06:45:30.324Z,16.97
2023-05-07T06:48:02.340Z,16.90
2023-05-07T06:50:34.334Z,17.07
2023-05-07T06:53:06.311Z,16.57
2023-05-07T06:55:39.316Z,15.40
2023-05-07T06:58:11.279Z,16.30
2023-05-07T07:00:43.253Z,15.77
2023-05-07T07:03:15.174Z,16.17
2023-05-07T07:05:47.109Z,16.63
2023-05-07T07:08:19.063Z,16.03
2023-05-07T07:10:50.962Z,16.27
2023-05-07T07:13:23.033Z,15.77
2023-05-07T07:15:55.019Z,15.60
2023-05-07T07:18:27.134Z,16.03
2023-05-07T07:20:59.177Z,15.63
2023-05-07T07:23:31.126Z,16.20
2023-05-07T07:26:03.226Z,15.53
2023-05-07T07:28:35.209Z,15.17
2023-05-07T07:31:07.190Z,14.90
2023-05-07T07:33:39.291Z,16.03
2023-05-07T07:36:11.255Z,15.00
2023-05-07T07:38:43.235Z,14.87
2023-05-07T07:41:15.254Z,15.33
2023-05-07T07:43:50.435Z,14.47
2023-05-07T07:46:22.499Z,15.23
2023-05-07T07:48:55.299Z,15.03
2023-05-07T07:51:27.739Z,13.90
2023-05-07T07:53:59.754Z,13.93
2023-05-07T07:56:34.672Z,15.40
2023-05-07T07:59:06.815Z,13.93
2023-05-07T08:01:38.799Z,14.83
2023-05-07T08:04:11.073Z,13.80
2023-05-07T08:06:43.501Z,14.23
2023-05-07T08:09:15.685Z,13.90
2023-05-07T08:11:47.674Z,14.50
2023-05-07T08:14:19.678Z,13.40
2023-05-07T08:16:51.705Z,14.13
2023-05-07T08:19:23.963Z,13.83
2023-05-07T08:21:59.059Z,14.10
2023-05-07T08:24:31.461Z,13.77
2023-05-07T08:27:03.640Z,14.03
2023-05-07T08:29:35.736Z,13.93
2023-05-07T08:32:07.685Z,14.57
2023-05-07T08:34:40.140Z,13.87
2023-05-07T08:37:12.542Z,13.60
2023-05-07T08:39:44.492Z,14.77
2023-05-07T08:42:18.938Z,14.47
2023-05-07T08:44:54.643Z,15.67
2023-05-07T08:47:36.504Z,14.80
2023-05-07T08:50:09.213Z,14.47
2023-05-07T08:52:44.380Z,14.10
2023-05-07T08:55:16.708Z,15.30
2023-05-07T08:57:49.479Z,15.57
2023-05-07T09:00:21.500Z,15.13
2023-05-07T09:02:54.935Z,14.23
2023-05-07T09:05:26.907Z,14.83
2023-05-07T09:08:04.139Z,15.57
2023-05-07T09:10:36.186Z,14.47
2023-05-07T09:13:08.140Z,14.77
2023-05-07T09:15:40.081Z,14.90
2023-05-07T09:18:13.022Z,15.00
2023-05-07T09:20:45.376Z,14.13
2023-05-07T09:23:17.557Z,15.20
2023-05-07T09:25:49.493Z,15.57
2023-05-07T09:28:21.370Z,14.70
2023-05-07T09:30:53.364Z,15.37
2023-05-07T09:33:28.791Z,15.33
2023-05-07T09:36:06.080Z,15.23
2023-05-07T09:38:38.992Z,15.30
2023-05-07T09:41:13.796Z,15.70
2023-05-07T09:43:45.852Z,15.17
2023-05-07T09:46:21.414Z,16.10
2023-05-07T09:48:58.536Z,15.63
2023-05-07T09:51:49.112Z,14.83
2023-05-07T09:54:21.082Z,15.60
2023-05-07T09:56:54.216Z,15.20
2023-05-07T09:59:30.069Z,14.73
2023-05-07T10:02:05.213Z,14.83
2023-05-07T10:04:38.202Z,14.23
2023-05-07T10:07:10.749Z,14.70
2023-05-07T10:09:45.153Z,12.83
2023-05-07T10:12:18.849Z,13.10
2023-05-07T10:14:56.268Z,13.20
2023-05-07T10:17:28.337Z,12.93
2023-05-07T10:20:01.265Z,13.43
2023-05-07T10:22:45.778Z,13.47
2023-05-07T10:25:30.895Z,13.07
2023-05-07T10:28:09.647Z,14.10
2023-05-07T10:31:13.126Z,13.73
2023-05-07T10:33:48.874Z,13.27
2023-05-07T10:36:23.289Z,13.30
2023-05-07T10:38:56.134Z,13.10
2023-05-07T10:41:28.127Z,13.10
2023-05-07T10:44:02.380Z,12.20
2023-05-07T10:46:36.531Z,12.80
2023-05-07T10:49:09.138Z,12.20
2023-05-07T10:51:41.320Z,12.20
2023-05-07T10:54:13.760Z,12.53
2023-05-07T10:56:45.875Z,12.53
2023-05-07T10:59:31.760Z,10.43
2023-05-07T11:02:07.190Z,11.50
2023-05-07T11:04:40.020Z,10.17
2023-05-07T11:07:30.657Z,9.83
2023-05-07T11:10:05.733Z,9.53
2023-05-07T11:12:38.184Z,9.67
2023-05-07T11:15:17.103Z,9.23
2023-05-07T11:17:59.577Z,9.30
2023-05-07T11:21:01.680Z,10.13
2023-05-07T11:23:36.520Z,10.03
2023-05-07T11:26:12.095Z,9.47
2023-05-07T11:28:45.006Z,10.00
2023-05-07T11:31:24.688Z,10.43
2023-05-07T11:33:57.249Z,10.23
2023-05-07T11:36:34.228Z,9.50
2023-05-07T11:39:06.457Z,9.77
2023-05-07T11:41:38.832Z,8.83
2023-05-07T11:44:11.160Z,8.33
2023-05-07T11:46:47.922Z,8.40
2023-05-07T11:49:19.946Z,7.87
2023-05-07T11:51:51.924Z,8.27
2023-05-07T11:54:23.894Z,6.70
2023-05-07T11:56:57.534Z,6.83
2023-05-07T11:59:29.431Z,7.47
2023-05-07T12:02:01.372Z,10.30
2023-05-07T12:04:33.429Z,8.23
2023-05-07T12:07:05.510Z,8.30
2023-05-07T12:09:38.394Z,10.73
2023-05-07T12:12:10.469Z,8.80
2023-05-07T12:14:44.680Z,8.13
2023-05-07T12:17:18.233Z,8.60
2023-05-07T12:19:50.786Z,10.37
2023-05-07T12:22:23.372Z,8.63
2023-05-07T12:25:00.080Z,8.23
2023-05-07T12:27:32.495Z,8.97
2023-05-07T12:30:04.830Z,16.70
2023-05-07T12:32:38.108Z,7.50
2023-05-07T12:35:10.459Z,4.80
2023-05-07T12:37:42.591Z,2.83
2023-05-07T12:40:15.548Z,2.23
2023-05-07T12:42:47.603Z,3.70
2023-05-07T12:45:19.703Z,2.53
2023-05-07T12:47:51.694Z,3.90
2023-05-07T12:50:24.556Z,5.57
2023-05-07T12:52:56.682Z,5.90
2023-05-07T12:55:34.834Z,9.13
2023-05-07T12:58:07.185Z,4.87
2023-05-07T13:00:40.058Z,9.67
2023-05-07T13:03:12.932Z,7.97
2023-05-07T13:05:44.853Z,19.00
2023-05-07T13:08:27.170Z,11.73
2023-05-07T13:11:04.509Z,6.77
2023-05-07T13:13:39.767Z,13.07
2023-05-07T13:16:12.973Z,10.50
2023-05-07T13:18:46.896Z,12.70
2023-05-07T13:21:18.920Z,6.87
2023-05-07T13:23:50.889Z,6.43
2023-05-07T13:26:26.678Z,3.73
2023-05-07T13:28:59.391Z,6.07
2023-05-07T13:31:31.364Z,4.77
2023-05-07T13:34:03.393Z,2.07
2023-05-07T13:36:38.150Z,2.30
2023-05-07T13:39:10.199Z,7.03
2023-05-07T13:41:42.161Z,4.80
2023-05-07T13:44:14.074Z,2.70
2023-05-07T13:46:46.315Z,4.67
2023-05-07T13:49:18.325Z,3.07
2023-05-07T13:51:50.268Z,2.43
2023-05-07T13:54:22.228Z,4.33
2023-05-07T13:56:54.380Z,3.10
2023-05-07T13:59:26.346Z,3.03
2023-05-07T14:01:58.278Z,3.20
2023-05-07T14:04:31.909Z,4.07
2023-05-07T14:07:03.919Z,4.47
2023-05-07T14:09:35.890Z,3.90
2023-05-07T14:12:09.044Z,4.30
2023-05-07T14:14:40.960Z,3.93
2023-05-07T14:17:13.239Z,4.87
2023-05-07T14:19:45.471Z,3.40
2023-05-07T14:22:17.447Z,3.40
2023-05-07T14:25:05.425Z,3.30
2023-05-07T14:27:38.331Z,4.10
2023-05-07T14:30:11.165Z,3.73
2023-05-07T14:32:43.157Z,4.00
2023-05-07T14:35:15.363Z,3.57
2023-05-07T14:37:47.479Z,3.13
2023-05-07T14:40:19.466Z,2.63
2023-05-07T14:42:51.388Z,2.87
2023-05-07T14:45:23.359Z,3.33
2023-05-07T14:47:55.684Z,5.83
2023-05-07T14:50:27.744Z,2.93
2023-05-07T14:52:59.630Z,4.33
2023-05-07T14:55:33.392Z,4.03
2023-05-07T14:58:06.734Z,3.00
2023-05-07T15:00:38.804Z,3.17
2023-05-07T15:03:11.926Z,4.30
2023-05-07T15:05:44.070Z,3.57
2023-05-07T15:08:16.052Z,2.93
2023-05-07T15:10:48.071Z,3.30
2023-05-07T15:13:20.138Z,3.63
2023-05-07T15:15:52.139Z,3.27
2023-05-07T15:18:24.788Z,3.63
2023-05-07T15:20:58.339Z,3.50
2023-05-07T15:23:30.305Z,4.83
2023-05-07T15:26:05.080Z,3.70
2023-05-07T15:28:37.255Z,4.77
2023-05-07T15:31:10.154Z,4.40
2023-05-07T15:33:42.072Z,5.60
2023-05-07T15:36:14.095Z,6.57
2023-05-07T15:38:46.011Z,7.60
2023-05-07T15:41:17.992Z,7.70
2023-05-07T15:43:53.380Z,7.13
2023-05-07T15:46:26.924Z,8.20
2023-05-07T15:48:59.014Z,7.80
2023-05-07T15:51:31.902Z,7.50
2023-05-07T15:54:04.149Z,7.67
2023-05-07T15:56:36.133Z,7.57
2023-05-07T15:59:08.018Z,7.87
2023-05-07T16:01:41.237Z,7.30
2023-05-07T16:04:13.209Z,7.53
2023-05-07T16:06:47.436Z,6.43
2023-05-07T16:09:19.495Z,6.70
2023-05-07T16:11:51.808Z,6.93
2023-05-07T16:14:24.342Z,6.77
2023-05-07T16:16:56.992Z,6.77
2023-05-07T16:19:31.899Z,7.00
2023-05-07T16:22:03.928Z,7.50
2023-05-07T16:24:35.957Z,7.93
2023-05-07T16:27:07.905Z,7.77
2023-05-07T16:29:40.136Z,7.83
2023-05-07T16:32:12.027Z,8.83
2023-05-07T16:34:43.988Z,9.33
2023-05-07T16:37:15.958Z,10.37
2023-05-07T16:39:47.879Z,11.87
2023-05-07T16:42:19.767Z,13.60
2023-05-07T16:44:51.697Z,15.87
2023-05-07T16:47:23.617Z,14.50
2023-05-07T16:49:55.814Z,9.43
2023-05-07T16:52:30.210Z,9.23
2023-05-07T16:55:02.126Z,7.43
2023-05-07T16:57:34.009Z,7.07
2023-05-07T17:00:07.574Z,4.90
2023-05-07T17:02:39.868Z,3.83
2023-05-07T17:05:12.049Z,2.87
2023-05-07T17:07:44.229Z,3.50
2023-05-07T17:10:16.221Z,3.87
2023-05-07T17:12:48.225Z,5.03
2023-05-07T17:15:20.209Z,4.60
2023-05-07T17:17:52.195Z,4.50
2023-05-07T17:20:25.184Z,6.30
2023-05-07T17:22:57.196Z,6.00
2023-05-07T17:25:29.160Z,9.70
2023-05-07T17:28:01.146Z,12.27
2023-05-07T17:30:33.129Z,13.97
2023-05-07T17:33:19.263Z,11.90
2023-05-07T17:35:54.828Z,7.50
2023-05-07T17:38:26.761Z,6.93
2023-05-07T17:40:59.250Z,6.90
2023-05-07T17:43:31.372Z,6.10
2023-05-07T17:46:03.550Z,5.03
2023-05-07T17:48:35.582Z,4.50
2023-05-07T17:51:07.571Z,3.70
2023-05-07T17:53:39.986Z,3.73
2023-05-07T17:56:12.491Z,3.80
2023-05-07T17:58:58.146Z,3.80
2023-05-07T18:01:33.439Z,4.20
2023-05-07T18:04:05.441Z,3.97
2023-05-07T18:06:37.453Z,5.07
2023-05-07T18:09:09.624Z,4.63
2023-05-07T18:11:41.609Z,4.87
2023-05-07T18:14:13.631Z,5.17
2023-05-07T18:16:45.657Z,5.67
2023-05-07T18:19:17.778Z,6.53
2023-05-07T18:21:49.959Z,6.70
2023-05-07T18:24:21.881Z,7.73
2023-05-07T18:26:54.773Z,7.70
2023-05-07T18:29:26.739Z,7.20
2023-05-07T18:31:58.719Z,7.00
2023-05-07T18:34:30.672Z,7.00
2023-05-07T18:37:02.618Z,6.50
2023-05-07T18:39:36.188Z,6.87
2023-05-07T18:42:08.704Z,7.30
2023-05-07T18:44:40.638Z,7.00
2023-05-07T18:47:13.933Z,7.80
2023-05-07T18:49:45.974Z,8.17
2023-05-07T18:52:21.143Z,7.53
2023-05-07T18:54:53.075Z,15.97
2023-05-07T18:57:25.087Z,18.40
2023-05-07T18:59:57.142Z,19.43
2023-05-07T19:02:29.151Z,17.53
2023-05-07T19:05:01.179Z,13.70
2023-05-07T19:07:33.406Z,11.57
2023-05-07T19:10:06.466Z,9.00
2023-05-07T19:12:38.600Z,6.90
2023-05-07T19:15:11.342Z,7.37
2023-05-07T19:17:43.262Z,6.37
2023-05-07T19:20:15.454Z,6.23
2023-05-07T19:22:47.469Z,5.83
2023-05-07T19:25:19.507Z,6.33
2023-05-07T19:27:51.583Z,5.53
2023-05-07T19:30:23.772Z,5.23
2023-05-07T19:32:56.187Z,5.07
2023-05-07T19:35:28.201Z,5.60
2023-05-07T19:38:00.171Z,5.30
2023-05-07T19:40:32.869Z,6.37
2023-05-07T19:43:04.793Z,5.50
2023-05-07T19:45:37.639Z,5.57
2023-05-07T19:48:10.103Z,5.80
2023-05-07T19:50:43.191Z,5.70
2023-05-07T19:53:15.514Z,6.60
2023-05-07T19:55:47.564Z,5.83
2023-05-07T19:58:19.494Z,6.30
2023-05-07T20:00:51.921Z,6.20
2023-05-07T20:03:24.161Z,6.50
2023-05-07T20:05:56.303Z,6.80
2023-05-07T20:08:29.605Z,6.70
2023-05-07T20:11:01.971Z,6.60
2023-05-07T20:13:33.926Z,6.97
2023-05-07T20:16:05.943Z,6.40
2023-05-07T20:18:37.880Z,6.93
2023-05-07T20:21:09.850Z,6.73
2023-05-07T20:23:41.989Z,6.70
2023-05-07T20:26:14.318Z,7.07
2023-05-07T20:28:46.214Z,7.13
2023-05-07T20:31:19.068Z,7.00
2023-05-07T20:33:51.137Z,7.70
2023-05-07T20:36:25.958Z,7.77
2023-05-07T20:38:57.946Z,8.60
2023-05-07T20:41:30.041Z,7.30
2023-05-07T20:44:02.718Z,7.13
2023-05-07T20:46:36.646Z,7.70
2023-05-07T20:49:08.759Z,7.30
2023-05-07T20:51:40.992Z,7.47
2023-05-07T20:54:14.642Z,7.77
2023-05-07T20:56:46.819Z,7.90
2023-05-07T20:59:18.738Z,7.63
2023-05-07T21:01:50.733Z,7.80
2023-05-07T21:04:22.802Z,8.43
2023-05-07T21:06:54.839Z,9.33
2023-05-07T21:09:26.895Z,10.47
2023-05-07T21:11:58.890Z,9.30
2023-05-07T21:14:30.938Z,10.03
2023-05-07T21:17:04.881Z,9.27
2023-05-07T21:19:36.918Z,9.17
2023-05-07T21:22:09.211Z,9.13
2023-05-07T21:24:41.485Z,8.60
2023-05-07T21:27:14.071Z,9.03
2023-05-07T21:29:46.096Z,9.67
2023-05-07T21:32:18.021Z,9.63
2023-05-07T21:34:50.008Z,9.30
2023-05-07T21:37:22.100Z,9.77
2023-05-07T21:39:54.265Z,10.07
2023-05-07T21:42:27.436Z,10.13
2023-05-07T21:44:59.646Z,10.17
2023-05-07T21:47:31.550Z,10.00
2023-05-07T21:50:03.834Z,9.77
2023-05-07T21:52:36.450Z,10.00
2023-05-07T21:55:09.353Z,10.83
2023-05-07T21:57:45.516Z,11.17
2023-05-07T22:00:20.184Z,10.97
2023-05-07T22:02:52.250Z,10.40
2023-05-07T22:05:24.257Z,11.20
2023-05-07T22:07:57.840Z,9.50
2023-05-07T22:10:30.341Z,10.53
2023-05-07T22:13:02.441Z,10.60
2023-05-07T22:15:39.677Z,10.93
2023-05-07T22:18:17.737Z,10.90
2023-05-07T22:20:52.173Z,10.67
2023-05-07T22:23:24.128Z,10.47
2023-05-07T22:25:56.134Z,10.47
2023-05-07T22:28:28.020Z,11.13
2023-05-07T22:30:59.961Z,10.87
2023-05-07T22:33:32.463Z,11.63
2023-05-07T22:36:05.031Z,11.43
2023-05-07T22:38:36.912Z,11.37
2023-05-07T22:41:09.779Z,10.83
2023-05-07T22:43:43.103Z,11.93
2023-05-07T22:46:15.105Z,11.63
2023-05-07T22:48:47.042Z,12.63
2023-05-07T22:51:19.013Z,10.83
2023-05-07T22:53:51.084Z,11.87
2023-05-07T22:56:23.236Z,11.67
2023-05-07T22:58:55.360Z,11.63
2023-05-07T23:01:27.372Z,11.67
2023-05-07T23:03:59.345Z,11.80
2023-05-07T23:06:31.268Z,11.67
2023-05-07T23:09:03.886Z,12.20
2023-05-07T23:11:36.964Z,12.50
2023-05-07T23:14:09.497Z,13.00
2023-05-07T23:16:41.471Z,12.20
2023-05-07T23:19:13.410Z,12.27
2023-05-07T23:21:45.339Z,12.33
2023-05-07T23:24:17.267Z,12.50
2023-05-07T23:26:49.178Z,13.40
2023-05-07T23:29:21.214Z,12.73
2023-05-07T23:31:53.122Z,12.57
2023-05-07T23:34:25.082Z,12.70
2023-05-07T23:36:57.114Z,12.63
2023-05-07T23:39:29.782Z,12.83
2023-05-07T23:42:01.768Z,12.30
2023-05-07T23:44:33.704Z,12.43
2023-05-07T23:47:05.720Z,12.57
2023-05-07T23:49:37.698Z,13.20
2023-05-07T23:52:09.628Z,13.00
2023-05-07T23:54:41.570Z,13.60
2023-05-07T23:57:14.397Z,14.03
2023-05-07T23:59:46.312Z,13.47
